sensor_id;sensor_type;location;lat;lon;timestamp;P1;durP1;ratioP1;P2;durP2;ratioP2
37455;SDS011;23316;50.718;7.328;2022-09-25T00:01:59;50.47;;;32.65;;
37455;SDS011;23316;50.718;7.328;2022-09-25T00:04:28;49.88;;;34.10;;
37455;SDS011;23316;50.718;7.328;2022-09-25T00:06:56;60.42;;;33.75;;
37455;SDS011;23316;50.718;7.328;2022-09-25T00:09:24;53.53;;;36.33;;
37455;SDS011;23316;50.718;7.328;2022-09-25T00:11:51;55.05;;;34.67;;
37455;SDS011;23316;50.718;7.328;2022-09-25T00:14:18;53.55;;;34.15;;
37455;SDS011;23316;50.718;7.328;2022-09-25T00:16:45;55.80;;;34.95;;
37455;SDS011;23316;50.718;7.328;2022-09-25T00:19:15;57.38;;;35.15;;
37455;SDS011;23316;50.718;7.328;2022-09-25T00:22:05;51.72;;;34.60;;
37455;SDS011;23316;50.718;7.328;2022-09-25T00:24:33;53.55;;;35.10;;
37455;SDS011;23316;50.718;7.328;2022-09-25T00:27:00;56.45;;;36.22;;
37455;SDS011;23316;50.718;7.328;2022-09-25T00:29:27;54.47;;;36.03;;
37455;SDS011;23316;50.718;7.328;2022-09-25T00:31:55;54.88;;;35.90;;
37455;SDS011;23316;50.718;7.328;2022-09-25T00:34:23;60.00;;;36.97;;
37455;SDS011;23316;50.718;7.328;2022-09-25T00:36:50;61.38;;;37.72;;
37455;SDS011;23316;50.718;7.328;2022-09-25T00:39:19;56.55;;;37.42;;
37455;SDS011;23316;50.718;7.328;2022-09-25T00:41:46;55.45;;;36.95;;
37455;SDS011;23316;50.718;7.328;2022-09-25T00:47:17;62.47;;;37.35;;
37455;SDS011;23316;50.718;7.328;2022-09-25T00:49:46;61.35;;;40.60;;
37455;SDS011;23316;50.718;7.328;2022-09-25T00:52:14;61.42;;;38.35;;
37455;SDS011;23316;50.718;7.328;2022-09-25T00:54:44;57.17;;;36.47;;
37455;SDS011;23316;50.718;7.328;2022-09-25T00:57:14;64.35;;;38.63;;
37455;SDS011;23316;50.718;7.328;2022-09-25T00:59:46;54.97;;;35.15;;
37455;SDS011;23316;50.718;7.328;2022-09-25T01:02:18;54.25;;;36.47;;
37455;SDS011;23316;50.718;7.328;2022-09-25T01:04:53;60.17;;;37.40;;
37455;SDS011;23316;50.718;7.328;2022-09-25T01:07:21;62.25;;;36.47;;
37455;SDS011;23316;50.718;7.328;2022-09-25T01:09:50;55.40;;;37.28;;
37455;SDS011;23316;50.718;7.328;2022-09-25T01:12:19;57.20;;;37.03;;
37455;SDS011;23316;50.718;7.328;2022-09-25T01:14:47;59.22;;;37.33;;
37455;SDS011;23316;50.718;7.328;2022-09-25T01:17:15;53.35;;;36.47;;
37455;SDS011;23316;50.718;7.328;2022-09-25T01:19:49;57.75;;;38.53;;
37455;SDS011;23316;50.718;7.328;2022-09-25T01:22:32;55.50;;;36.35;;
37455;SDS011;23316;50.718;7.328;2022-09-25T01:25:10;55.58;;;35.97;;
37455;SDS011;23316;50.718;7.328;2022-09-25T01:27:48;50.60;;;33.58;;
37455;SDS011;23316;50.718;7.328;2022-09-25T01:30:32;50.55;;;33.85;;
37455;SDS011;23316;50.718;7.328;2022-09-25T01:33:04;55.73;;;36.23;;
37455;SDS011;23316;50.718;7.328;2022-09-25T01:35:38;60.97;;;36.47;;
37455;SDS011;23316;50.718;7.328;2022-09-25T01:38:15;57.00;;;36.95;;
37455;SDS011;23316;50.718;7.328;2022-09-25T01:40:51;61.10;;;37.75;;
37455;SDS011;23316;50.718;7.328;2022-09-25T01:43:24;58.30;;;35.28;;
37455;SDS011;23316;50.718;7.328;2022-09-25T01:45:59;57.70;;;36.90;;
37455;SDS011;23316;50.718;7.328;2022-09-25T01:48:29;50.13;;;34.85;;
37455;SDS011;23316;50.718;7.328;2022-09-25T01:50:58;52.47;;;35.05;;
37455;SDS011;23316;50.718;7.328;2022-09-25T01:53:29;59.50;;;36.85;;
37455;SDS011;23316;50.718;7.328;2022-09-25T01:56:00;60.53;;;38.15;;
37455;SDS011;23316;50.718;7.328;2022-09-25T01:58:32;62.10;;;38.38;;
37455;SDS011;23316;50.718;7.328;2022-09-25T02:01:04;56.15;;;36.25;;
37455;SDS011;23316;50.718;7.328;2022-09-25T02:03:36;61.13;;;39.28;;
37455;SDS011;23316;50.718;7.328;2022-09-25T02:06:09;58.40;;;37.92;;
37455;SDS011;23316;50.718;7.328;2022-09-25T02:08:42;53.53;;;35.97;;
37455;SDS011;23316;50.718;7.328;2022-09-25T02:11:13;57.42;;;35.45;;
37455;SDS011;23316;50.718;7.328;2022-09-25T02:13:42;95.93;;;37.85;;
37455;SDS011;23316;50.718;7.328;2022-09-25T02:16:14;78.07;;;38.65;;
37455;SDS011;23316;50.718;7.328;2022-09-25T02:18:45;57.30;;;37.78;;
37455;SDS011;23316;50.718;7.328;2022-09-25T02:21:34;58.33;;;35.03;;
37455;SDS011;23316;50.718;7.328;2022-09-25T02:24:10;67.35;;;37.47;;
37455;SDS011;23316;50.718;7.328;2022-09-25T02:26:45;61.53;;;36.42;;
37455;SDS011;23316;50.718;7.328;2022-09-25T02:29:13;53.78;;;35.53;;
37455;SDS011;23316;50.718;7.328;2022-09-25T02:31:43;58.15;;;37.53;;
37455;SDS011;23316;50.718;7.328;2022-09-25T02:34:13;54.85;;;35.83;;
37455;SDS011;23316;50.718;7.328;2022-09-25T02:36:41;62.90;;;36.58;;
37455;SDS011;23316;50.718;7.328;2022-09-25T02:39:09;56.95;;;36.13;;
37455;SDS011;23316;50.718;7.328;2022-09-25T02:41:42;77.35;;;37.00;;
37455;SDS011;23316;50.718;7.328;2022-09-25T02:44:20;56.22;;;35.80;;
37455;SDS011;23316;50.718;7.328;2022-09-25T02:47:00;60.15;;;35.40;;
37455;SDS011;23316;50.718;7.328;2022-09-25T02:49:39;59.88;;;36.85;;
37455;SDS011;23316;50.718;7.328;2022-09-25T02:52:15;53.03;;;34.42;;
37455;SDS011;23316;50.718;7.328;2022-09-25T02:54:51;59.05;;;35.05;;
37455;SDS011;23316;50.718;7.328;2022-09-25T02:57:23;53.58;;;34.60;;
37455;SDS011;23316;50.718;7.328;2022-09-25T03:00:03;90.75;;;35.28;;
37455;SDS011;23316;50.718;7.328;2022-09-25T03:02:34;58.33;;;34.40;;
37455;SDS011;23316;50.718;7.328;2022-09-25T03:05:03;54.80;;;34.30;;
37455;SDS011;23316;50.718;7.328;2022-09-25T03:07:32;53.22;;;33.40;;
37455;SDS011;23316;50.718;7.328;2022-09-25T03:10:19;47.67;;;30.80;;
37455;SDS011;23316;50.718;7.328;2022-09-25T03:12:47;52.72;;;33.88;;
37455;SDS011;23316;50.718;7.328;2022-09-25T03:15:14;55.03;;;34.05;;
37455;SDS011;23316;50.718;7.328;2022-09-25T03:17:44;61.05;;;35.25;;
37455;SDS011;23316;50.718;7.328;2022-09-25T03:20:12;49.88;;;32.70;;
37455;SDS011;23316;50.718;7.328;2022-09-25T03:22:40;53.35;;;33.65;;
37455;SDS011;23316;50.718;7.328;2022-09-25T03:25:07;47.75;;;30.90;;
37455;SDS011;23316;50.718;7.328;2022-09-25T03:27:34;52.05;;;31.58;;
37455;SDS011;23316;50.718;7.328;2022-09-25T03:30:01;49.90;;;31.83;;
37455;SDS011;23316;50.718;7.328;2022-09-25T03:32:29;53.83;;;32.70;;
37455;SDS011;23316;50.718;7.328;2022-09-25T03:34:58;68.60;;;30.75;;
37455;SDS011;23316;50.718;7.328;2022-09-25T03:37:25;53.88;;;33.55;;
37455;SDS011;23316;50.718;7.328;2022-09-25T03:39:52;55.85;;;32.95;;
37455;SDS011;23316;50.718;7.328;2022-09-25T03:42:19;67.75;;;33.42;;
37455;SDS011;23316;50.718;7.328;2022-09-25T03:44:46;50.03;;;32.25;;
37455;SDS011;23316;50.718;7.328;2022-09-25T03:47:13;50.15;;;32.03;;
37455;SDS011;23316;50.718;7.328;2022-09-25T03:49:41;64.90;;;35.13;;
37455;SDS011;23316;50.718;7.328;2022-09-25T03:52:09;60.95;;;35.08;;
37455;SDS011;23316;50.718;7.328;2022-09-25T03:54:38;62.67;;;37.13;;
37455;SDS011;23316;50.718;7.328;2022-09-25T03:57:06;55.90;;;35.35;;
37455;SDS011;23316;50.718;7.328;2022-09-25T03:59:33;56.13;;;36.15;;
37455;SDS011;23316;50.718;7.328;2022-09-25T04:02:00;58.00;;;34.45;;
37455;SDS011;23316;50.718;7.328;2022-09-25T04:04:27;60.78;;;35.40;;
37455;SDS011;23316;50.718;7.328;2022-09-25T04:06:54;65.00;;;37.70;;
37455;SDS011;23316;50.718;7.328;2022-09-25T04:09:23;64.78;;;37.25;;
37455;SDS011;23316;50.718;7.328;2022-09-25T04:11:50;64.88;;;35.75;;
37455;SDS011;23316;50.718;7.328;2022-09-25T04:14:19;62.47;;;37.88;;
37455;SDS011;23316;50.718;7.328;2022-09-25T04:16:46;63.55;;;37.60;;
37455;SDS011;23316;50.718;7.328;2022-09-25T04:19:14;59.55;;;36.15;;
37455;SDS011;23316;50.718;7.328;2022-09-25T04:21:41;55.95;;;34.97;;
37455;SDS011;23316;50.718;7.328;2022-09-25T04:24:09;57.22;;;34.60;;
37455;SDS011;23316;50.718;7.328;2022-09-25T04:26:55;76.65;;;37.83;;
37455;SDS011;23316;50.718;7.328;2022-09-25T04:29:22;72.80;;;38.58;;
37455;SDS011;23316;50.718;7.328;2022-09-25T04:31:49;60.20;;;36.10;;
37455;SDS011;23316;50.718;7.328;2022-09-25T04:34:30;54.42;;;33.75;;
37455;SDS011;23316;50.718;7.328;2022-09-25T04:36:59;75.13;;;38.58;;
37455;SDS011;23316;50.718;7.328;2022-09-25T04:39:26;55.85;;;34.75;;
37455;SDS011;23316;50.718;7.328;2022-09-25T04:41:55;64.07;;;36.65;;
37455;SDS011;23316;50.718;7.328;2022-09-25T04:44:22;65.68;;;36.83;;
37455;SDS011;23316;50.718;7.328;2022-09-25T04:46:49;58.95;;;36.85;;
37455;SDS011;23316;50.718;7.328;2022-09-25T04:49:17;61.30;;;36.03;;
37455;SDS011;23316;50.718;7.328;2022-09-25T04:51:44;61.70;;;36.60;;
37455;SDS011;23316;50.718;7.328;2022-09-25T04:54:11;54.08;;;33.97;;
37455;SDS011;23316;50.718;7.328;2022-09-25T04:56:39;64.43;;;36.88;;
37455;SDS011;23316;50.718;7.328;2022-09-25T04:59:09;57.90;;;35.13;;
37455;SDS011;23316;50.718;7.328;2022-09-25T05:01:37;60.33;;;36.25;;
37455;SDS011;23316;50.718;7.328;2022-09-25T05:04:04;61.75;;;34.92;;
37455;SDS011;23316;50.718;7.328;2022-09-25T05:06:31;54.92;;;32.83;;
37455;SDS011;23316;50.718;7.328;2022-09-25T05:08:58;56.05;;;33.35;;
37455;SDS011;23316;50.718;7.328;2022-09-25T05:11:27;52.20;;;31.50;;
37455;SDS011;23316;50.718;7.328;2022-09-25T05:13:54;52.88;;;32.38;;
37455;SDS011;23316;50.718;7.328;2022-09-25T05:16:23;54.30;;;32.95;;
37455;SDS011;23316;50.718;7.328;2022-09-25T05:18:53;51.25;;;30.85;;
37455;SDS011;23316;50.718;7.328;2022-09-25T05:21:21;47.05;;;29.80;;
37455;SDS011;23316;50.718;7.328;2022-09-25T05:23:48;47.35;;;30.35;;
37455;SDS011;23316;50.718;7.328;2022-09-25T05:26:16;47.67;;;30.33;;
37455;SDS011;23316;50.718;7.328;2022-09-25T05:28:43;52.92;;;32.47;;
37455;SDS011;23316;50.718;7.328;2022-09-25T05:31:13;56.05;;;30.35;;
37455;SDS011;23316;50.718;7.328;2022-09-25T05:33:42;62.75;;;31.50;;
37455;SDS011;23316;50.718;7.328;2022-09-25T05:36:09;55.72;;;32.05;;
37455;SDS011;23316;50.718;7.328;2022-09-25T05:38:37;56.75;;;32.20;;
37455;SDS011;23316;50.718;7.328;2022-09-25T05:41:07;51.90;;;31.60;;
37455;SDS011;23316;50.718;7.328;2022-09-25T05:43:37;54.03;;;30.83;;
37455;SDS011;23316;50.718;7.328;2022-09-25T05:46:05;51.45;;;29.77;;
37455;SDS011;23316;50.718;7.328;2022-09-25T05:48:33;49.60;;;28.55;;
37455;SDS011;23316;50.718;7.328;2022-09-25T05:51:02;47.25;;;28.95;;
37455;SDS011;23316;50.718;7.328;2022-09-25T05:53:29;45.47;;;27.08;;
37455;SDS011;23316;50.718;7.328;2022-09-25T05:55:58;52.58;;;26.88;;
37455;SDS011;23316;50.718;7.328;2022-09-25T05:58:27;46.75;;;27.42;;
37455;SDS011;23316;50.718;7.328;2022-09-25T06:00:58;44.97;;;25.90;;
37455;SDS011;23316;50.718;7.328;2022-09-25T06:03:25;48.40;;;25.38;;
37455;SDS011;23316;50.718;7.328;2022-09-25T06:05:54;38.70;;;24.60;;
37455;SDS011;23316;50.718;7.328;2022-09-25T06:08:22;42.65;;;24.42;;
37455;SDS011;23316;50.718;7.328;2022-09-25T06:10:50;48.72;;;24.05;;
37455;SDS011;23316;50.718;7.328;2022-09-25T06:13:20;36.85;;;22.60;;
37455;SDS011;23316;50.718;7.328;2022-09-25T06:15:48;41.90;;;23.50;;
37455;SDS011;23316;50.718;7.328;2022-09-25T06:18:17;38.65;;;24.20;;
37455;SDS011;23316;50.718;7.328;2022-09-25T06:20:45;42.75;;;22.83;;
37455;SDS011;23316;50.718;7.328;2022-09-25T06:23:13;42.15;;;21.92;;
37455;SDS011;23316;50.718;7.328;2022-09-25T06:25:42;34.20;;;19.83;;
37455;SDS011;23316;50.718;7.328;2022-09-25T06:28:10;39.53;;;22.60;;
37455;SDS011;23316;50.718;7.328;2022-09-25T06:30:37;32.00;;;20.00;;
37455;SDS011;23316;50.718;7.328;2022-09-25T06:33:05;36.10;;;21.15;;
37455;SDS011;23316;50.718;7.328;2022-09-25T06:35:39;31.85;;;18.52;;
37455;SDS011;23316;50.718;7.328;2022-09-25T06:38:07;30.15;;;17.75;;
37455;SDS011;23316;50.718;7.328;2022-09-25T06:40:42;30.33;;;18.60;;
37455;SDS011;23316;50.718;7.328;2022-09-25T06:43:10;39.38;;;18.75;;
37455;SDS011;23316;50.718;7.328;2022-09-25T06:45:42;33.65;;;18.83;;
37455;SDS011;23316;50.718;7.328;2022-09-25T06:48:10;30.05;;;17.17;;
37455;SDS011;23316;50.718;7.328;2022-09-25T06:50:39;31.85;;;18.10;;
37455;SDS011;23316;50.718;7.328;2022-09-25T06:53:08;34.17;;;18.05;;
37455;SDS011;23316;50.718;7.328;2022-09-25T06:55:36;27.08;;;17.10;;
37455;SDS011;23316;50.718;7.328;2022-09-25T06:58:05;29.80;;;17.00;;
37455;SDS011;23316;50.718;7.328;2022-09-25T07:00:33;29.90;;;17.05;;
37455;SDS011;23316;50.718;7.328;2022-09-25T07:03:01;27.67;;;15.20;;
37455;SDS011;23316;50.718;7.328;2022-09-25T07:05:46;28.83;;;13.93;;
37455;SDS011;23316;50.718;7.328;2022-09-25T07:08:14;25.67;;;14.35;;
37455;SDS011;23316;50.718;7.328;2022-09-25T07:10:46;25.60;;;14.43;;
37455;SDS011;23316;50.718;7.328;2022-09-25T07:13:15;25.70;;;14.30;;
37455;SDS011;23316;50.718;7.328;2022-09-25T07:15:42;26.02;;;13.80;;
37455;SDS011;23316;50.718;7.328;2022-09-25T07:18:15;28.88;;;13.88;;
37455;SDS011;23316;50.718;7.328;2022-09-25T07:20:43;29.30;;;14.32;;
37455;SDS011;23316;50.718;7.328;2022-09-25T07:23:11;30.52;;;13.57;;
37455;SDS011;23316;50.718;7.328;2022-09-25T07:25:38;26.73;;;12.85;;
37455;SDS011;23316;50.718;7.328;2022-09-25T07:28:06;25.95;;;12.23;;
37455;SDS011;23316;50.718;7.328;2022-09-25T07:30:35;24.38;;;11.10;;
37455;SDS011;23316;50.718;7.328;2022-09-25T07:33:02;18.20;;;10.95;;
37455;SDS011;23316;50.718;7.328;2022-09-25T07:35:29;25.25;;;11.95;;
37455;SDS011;23316;50.718;7.328;2022-09-25T07:37:57;29.98;;;11.32;;
37455;SDS011;23316;50.718;7.328;2022-09-25T07:40:24;26.85;;;11.18;;
37455;SDS011;23316;50.718;7.328;2022-09-25T07:42:56;33.38;;;11.85;;
37455;SDS011;23316;50.718;7.328;2022-09-25T07:45:25;26.65;;;11.52;;
37455;SDS011;23316;50.718;7.328;2022-09-25T07:47:55;20.08;;;10.20;;
37455;SDS011;23316;50.718;7.328;2022-09-25T07:50:23;42.45;;;10.52;;
37455;SDS011;23316;50.718;7.328;2022-09-25T07:52:51;26.48;;;10.75;;
37455;SDS011;23316;50.718;7.328;2022-09-25T07:55:19;21.13;;;10.20;;
37455;SDS011;23316;50.718;7.328;2022-09-25T07:57:46;27.15;;;11.25;;
37455;SDS011;23316;50.718;7.328;2022-09-25T08:00:15;24.55;;;12.20;;
37455;SDS011;23316;50.718;7.328;2022-09-25T08:02:43;26.05;;;11.70;;
37455;SDS011;23316;50.718;7.328;2022-09-25T08:05:11;26.65;;;12.65;;
37455;SDS011;23316;50.718;7.328;2022-09-25T08:07:39;24.27;;;12.15;;
37455;SDS011;23316;50.718;7.328;2022-09-25T08:10:07;20.00;;;10.98;;
37455;SDS011;23316;50.718;7.328;2022-09-25T08:12:34;30.63;;;13.32;;
37455;SDS011;23316;50.718;7.328;2022-09-25T08:15:01;29.70;;;12.43;;
37455;SDS011;23316;50.718;7.328;2022-09-25T08:17:29;31.85;;;13.13;;
37455;SDS011;23316;50.718;7.328;2022-09-25T08:19:56;21.33;;;11.60;;
37455;SDS011;23316;50.718;7.328;2022-09-25T08:22:25;21.45;;;12.35;;
37455;SDS011;23316;50.718;7.328;2022-09-25T08:24:52;28.13;;;13.18;;
37455;SDS011;23316;50.718;7.328;2022-09-25T08:27:19;25.40;;;12.77;;
37455;SDS011;23316;50.718;7.328;2022-09-25T08:29:47;22.70;;;10.35;;
37455;SDS011;23316;50.718;7.328;2022-09-25T08:32:14;28.80;;;11.23;;
37455;SDS011;23316;50.718;7.328;2022-09-25T08:34:41;22.13;;;10.60;;
37455;SDS011;23316;50.718;7.328;2022-09-25T08:37:08;20.67;;;10.40;;
37455;SDS011;23316;50.718;7.328;2022-09-25T08:39:37;19.85;;;9.65;;
37455;SDS011;23316;50.718;7.328;2022-09-25T08:42:04;22.77;;;9.32;;
37455;SDS011;23316;50.718;7.328;2022-09-25T08:44:34;21.83;;;8.93;;
37455;SDS011;23316;50.718;7.328;2022-09-25T08:47:04;22.48;;;8.05;;
37455;SDS011;23316;50.718;7.328;2022-09-25T08:49:59;19.48;;;7.40;;
37455;SDS011;23316;50.718;7.328;2022-09-25T08:52:30;21.75;;;8.40;;
37455;SDS011;23316;50.718;7.328;2022-09-25T08:54:59;15.57;;;7.53;;
37455;SDS011;23316;50.718;7.328;2022-09-25T08:57:28;27.08;;;7.85;;
37455;SDS011;23316;50.718;7.328;2022-09-25T09:00:00;19.65;;;7.47;;
37455;SDS011;23316;50.718;7.328;2022-09-25T09:02:35;22.52;;;7.38;;
37455;SDS011;23316;50.718;7.328;2022-09-25T09:05:08;23.23;;;7.70;;
37455;SDS011;23316;50.718;7.328;2022-09-25T09:07:43;17.70;;;6.78;;
37455;SDS011;23316;50.718;7.328;2022-09-25T09:10:20;20.45;;;7.25;;
37455;SDS011;23316;50.718;7.328;2022-09-25T09:12:55;18.25;;;7.43;;
37455;SDS011;23316;50.718;7.328;2022-09-25T09:15:26;16.67;;;6.57;;
37455;SDS011;23316;50.718;7.328;2022-09-25T09:18:00;18.13;;;7.03;;
37455;SDS011;23316;50.718;7.328;2022-09-25T09:20:36;18.42;;;6.45;;
37455;SDS011;23316;50.718;7.328;2022-09-25T09:23:09;18.25;;;6.53;;
37455;SDS011;23316;50.718;7.328;2022-09-25T09:25:46;19.67;;;6.90;;
37455;SDS011;23316;50.718;7.328;2022-09-25T09:28:37;17.88;;;6.15;;
37455;SDS011;23316;50.718;7.328;2022-09-25T09:31:26;23.60;;;6.25;;
37455;SDS011;23316;50.718;7.328;2022-09-25T09:34:01;22.40;;;6.13;;
37455;SDS011;23316;50.718;7.328;2022-09-25T09:36:41;20.73;;;6.95;;
37455;SDS011;23316;50.718;7.328;2022-09-25T09:39:17;17.38;;;5.80;;
37455;SDS011;23316;50.718;7.328;2022-09-25T09:41:53;20.35;;;6.85;;
37455;SDS011;23316;50.718;7.328;2022-09-25T09:44:33;17.10;;;5.60;;
37455;SDS011;23316;50.718;7.328;2022-09-25T09:47:10;28.85;;;5.53;;
37455;SDS011;23316;50.718;7.328;2022-09-25T09:49:48;17.95;;;5.88;;
37455;SDS011;23316;50.718;7.328;2022-09-25T09:52:18;20.60;;;6.40;;
37455;SDS011;23316;50.718;7.328;2022-09-25T09:54:48;14.82;;;5.53;;
37455;SDS011;23316;50.718;7.328;2022-09-25T09:57:22;16.42;;;5.00;;
37455;SDS011;23316;50.718;7.328;2022-09-25T09:59:52;18.77;;;5.75;;
37455;SDS011;23316;50.718;7.328;2022-09-25T10:02:28;13.25;;;5.20;;
37455;SDS011;23316;50.718;7.328;2022-09-25T10:04:58;17.17;;;5.75;;
37455;SDS011;23316;50.718;7.328;2022-09-25T10:07:30;21.05;;;6.13;;
37455;SDS011;23316;50.718;7.328;2022-09-25T10:10:04;20.02;;;5.95;;
37455;SDS011;23316;50.718;7.328;2022-09-25T10:12:38;14.18;;;6.35;;
37455;SDS011;23316;50.718;7.328;2022-09-25T10:15:12;18.98;;;7.07;;
37455;SDS011;23316;50.718;7.328;2022-09-25T10:20:13;19.23;;;5.95;;
37455;SDS011;23316;50.718;7.328;2022-09-25T10:22:43;28.55;;;8.55;;
37455;SDS011;23316;50.718;7.328;2022-09-25T10:25:11;18.77;;;7.38;;
37455;SDS011;23316;50.718;7.328;2022-09-25T10:27:41;11.73;;;7.00;;
37455;SDS011;23316;50.718;7.328;2022-09-25T10:30:15;20.88;;;7.55;;
37455;SDS011;23316;50.718;7.328;2022-09-25T10:35:22;19.25;;;8.23;;
37455;SDS011;23316;50.718;7.328;2022-09-25T10:37:52;19.48;;;7.45;;
37455;SDS011;23316;50.718;7.328;2022-09-25T10:40:22;22.88;;;7.93;;
37455;SDS011;23316;50.718;7.328;2022-09-25T10:43:15;24.85;;;7.60;;
37455;SDS011;23316;50.718;7.328;2022-09-25T10:45:45;21.55;;;8.10;;
37455;SDS011;23316;50.718;7.328;2022-09-25T10:48:22;24.25;;;8.20;;
37455;SDS011;23316;50.718;7.328;2022-09-25T10:51:10;20.95;;;8.30;;
37455;SDS011;23316;50.718;7.328;2022-09-25T10:53:41;15.98;;;7.55;;
37455;SDS011;23316;50.718;7.328;2022-09-25T10:56:10;19.20;;;7.38;;
37455;SDS011;23316;50.718;7.328;2022-09-25T10:58:43;13.05;;;6.80;;
37455;SDS011;23316;50.718;7.328;2022-09-25T11:01:14;17.88;;;7.32;;
37455;SDS011;23316;50.718;7.328;2022-09-25T11:03:49;20.95;;;6.53;;
37455;SDS011;23316;50.718;7.328;2022-09-25T11:06:21;24.33;;;7.25;;
37455;SDS011;23316;50.718;7.328;2022-09-25T11:08:54;12.68;;;5.65;;
37455;SDS011;23316;50.718;7.328;2022-09-25T11:11:27;21.98;;;5.88;;
37455;SDS011;23316;50.718;7.328;2022-09-25T11:13:57;14.13;;;4.78;;
37455;SDS011;23316;50.718;7.328;2022-09-25T11:19:14;12.57;;;3.67;;
37455;SDS011;23316;50.718;7.328;2022-09-25T11:21:47;15.82;;;4.70;;
37455;SDS011;23316;50.718;7.328;2022-09-25T11:24:22;13.50;;;3.38;;
37455;SDS011;23316;50.718;7.328;2022-09-25T11:26:56;8.65;;;3.45;;
37455;SDS011;23316;50.718;7.328;2022-09-25T11:29:33;13.25;;;3.58;;
37455;SDS011;23316;50.718;7.328;2022-09-25T11:32:10;7.13;;;2.90;;
37455;SDS011;23316;50.718;7.328;2022-09-25T11:34:51;10.88;;;3.00;;
37455;SDS011;23316;50.718;7.328;2022-09-25T11:37:34;9.30;;;2.70;;
37455;SDS011;23316;50.718;7.328;2022-09-25T11:40:11;9.68;;;2.45;;
37455;SDS011;23316;50.718;7.328;2022-09-25T11:43:10;9.98;;;1.70;;
37455;SDS011;23316;50.718;7.328;2022-09-25T11:45:43;7.63;;;1.95;;
37455;SDS011;23316;50.718;7.328;2022-09-25T11:48:15;11.07;;;1.50;;
37455;SDS011;23316;50.718;7.328;2022-09-25T11:50:50;12.73;;;1.60;;
37455;SDS011;23316;50.718;7.328;2022-09-25T11:53:25;7.88;;;1.55;;
37455;SDS011;23316;50.718;7.328;2022-09-25T11:56:02;8.18;;;1.20;;
37455;SDS011;23316;50.718;7.328;2022-09-25T11:58:44;6.18;;;1.52;;
37455;SDS011;23316;50.718;7.328;2022-09-25T12:01:28;11.90;;;1.50;;
37455;SDS011;23316;50.718;7.328;2022-09-25T12:04:11;6.72;;;1.30;;
37455;SDS011;23316;50.718;7.328;2022-09-25T12:07:04;5.93;;;1.33;;
37455;SDS011;23316;50.718;7.328;2022-09-25T12:12:49;9.15;;;1.50;;
37455;SDS011;23316;50.718;7.328;2022-09-25T12:15:26;4.95;;;1.08;;
37455;SDS011;23316;50.718;7.328;2022-09-25T12:18:10;8.25;;;1.70;;
37455;SDS011;23316;50.718;7.328;2022-09-25T12:20:47;14.88;;;2.03;;
37455;SDS011;23316;50.718;7.328;2022-09-25T12:23:28;6.47;;;1.17;;
37455;SDS011;23316;50.718;7.328;2022-09-25T12:26:00;5.72;;;1.10;;
37455;SDS011;23316;50.718;7.328;2022-09-25T12:28:43;7.25;;;1.40;;
37455;SDS011;23316;50.718;7.328;2022-09-25T12:31:22;12.93;;;1.50;;
37455;SDS011;23316;50.718;7.328;2022-09-25T12:33:59;6.63;;;1.40;;
37455;SDS011;23316;50.718;7.328;2022-09-25T12:36:35;10.27;;;1.17;;
37455;SDS011;23316;50.718;7.328;2022-09-25T12:39:10;9.00;;;1.50;;
37455;SDS011;23316;50.718;7.328;2022-09-25T12:41:51;5.35;;;0.90;;
37455;SDS011;23316;50.718;7.328;2022-09-25T12:44:28;5.82;;;1.00;;
37455;SDS011;23316;50.718;7.328;2022-09-25T12:47:02;6.57;;;1.30;;
37455;SDS011;23316;50.718;7.328;2022-09-25T12:49:35;6.47;;;1.08;;
37455;SDS011;23316;50.718;7.328;2022-09-25T12:52:08;4.28;;;1.23;;
37455;SDS011;23316;50.718;7.328;2022-09-25T12:54:40;8.07;;;1.15;;
37455;SDS011;23316;50.718;7.328;2022-09-25T12:57:16;6.72;;;1.08;;
37455;SDS011;23316;50.718;7.328;2022-09-25T12:59:48;5.40;;;1.20;;
37455;SDS011;23316;50.718;7.328;2022-09-25T13:02:20;7.00;;;1.27;;
37455;SDS011;23316;50.718;7.328;2022-09-25T13:07:27;8.15;;;1.42;;
37455;SDS011;23316;50.718;7.328;2022-09-25T13:10:00;7.95;;;1.20;;
37455;SDS011;23316;50.718;7.328;2022-09-25T13:12:32;5.32;;;1.08;;
37455;SDS011;23316;50.718;7.328;2022-09-25T13:15:02;3.35;;;0.88;;
37455;SDS011;23316;50.718;7.328;2022-09-25T13:17:33;4.68;;;1.25;;
37455;SDS011;23316;50.718;7.328;2022-09-25T13:23:10;3.25;;;0.90;;
37455;SDS011;23316;50.718;7.328;2022-09-25T13:25:40;5.47;;;1.10;;
37455;SDS011;23316;50.718;7.328;2022-09-25T13:28:12;4.80;;;0.90;;
37455;SDS011;23316;50.718;7.328;2022-09-25T13:31:01;3.75;;;1.38;;
37455;SDS011;23316;50.718;7.328;2022-09-25T13:33:33;5.07;;;0.98;;
37455;SDS011;23316;50.718;7.328;2022-09-25T13:36:11;8.55;;;1.25;;
37455;SDS011;23316;50.718;7.328;2022-09-25T13:38:58;5.05;;;1.02;;
37455;SDS011;23316;50.718;7.328;2022-09-25T13:41:49;6.05;;;0.98;;
37455;SDS011;23316;50.718;7.328;2022-09-25T13:44:47;3.88;;;0.80;;
37455;SDS011;23316;50.718;7.328;2022-09-25T13:50:27;3.83;;;0.77;;
37455;SDS011;23316;50.718;7.328;2022-09-25T13:59:00;10.48;;;1.45;;
37455;SDS011;23316;50.718;7.328;2022-09-25T14:01:46;3.22;;;1.10;;
37455;SDS011;23316;50.718;7.328;2022-09-25T14:04:18;6.03;;;1.20;;
37455;SDS011;23316;50.718;7.328;2022-09-25T14:06:50;5.65;;;1.02;;
37455;SDS011;23316;50.718;7.328;2022-09-25T14:09:21;3.85;;;0.90;;
37455;SDS011;23316;50.718;7.328;2022-09-25T14:11:51;7.25;;;0.90;;
37455;SDS011;23316;50.718;7.328;2022-09-25T14:14:29;4.18;;;0.95;;
37455;SDS011;23316;50.718;7.328;2022-09-25T14:16:59;2.45;;;0.82;;
37455;SDS011;23316;50.718;7.328;2022-09-25T14:19:29;4.65;;;1.27;;
37455;SDS011;23316;50.718;7.328;2022-09-25T14:22:00;14.00;;;1.40;;
37455;SDS011;23316;50.718;7.328;2022-09-25T14:24:30;4.20;;;1.25;;
37455;SDS011;23316;50.718;7.328;2022-09-25T14:26:58;5.03;;;1.02;;
37455;SDS011;23316;50.718;7.328;2022-09-25T14:29:28;3.58;;;0.80;;
37455;SDS011;23316;50.718;7.328;2022-09-25T14:32:07;2.38;;;0.60;;
37455;SDS011;23316;50.718;7.328;2022-09-25T14:34:46;5.85;;;1.13;;
37455;SDS011;23316;50.718;7.328;2022-09-25T14:37:26;5.95;;;0.95;;
37455;SDS011;23316;50.718;7.328;2022-09-25T14:40:15;5.82;;;1.23;;
37455;SDS011;23316;50.718;7.328;2022-09-25T14:42:59;6.72;;;0.90;;
37455;SDS011;23316;50.718;7.328;2022-09-25T14:48:32;4.57;;;1.00;;
37455;SDS011;23316;50.718;7.328;2022-09-25T14:51:05;3.20;;;0.73;;
37455;SDS011;23316;50.718;7.328;2022-09-25T14:53:37;3.45;;;0.80;;
37455;SDS011;23316;50.718;7.328;2022-09-25T14:56:07;3.55;;;0.77;;
37455;SDS011;23316;50.718;7.328;2022-09-25T14:58:37;5.75;;;0.65;;
37455;SDS011;23316;50.718;7.328;2022-09-25T15:01:13;1.90;;;0.88;;
37455;SDS011;23316;50.718;7.328;2022-09-25T15:03:47;5.35;;;0.90;;
37455;SDS011;23316;50.718;7.328;2022-09-25T15:06:25;4.80;;;0.70;;
37455;SDS011;23316;50.718;7.328;2022-09-25T15:08:53;2.80;;;0.70;;
37455;SDS011;23316;50.718;7.328;2022-09-25T15:11:22;2.70;;;0.60;;
37455;SDS011;23316;50.718;7.328;2022-09-25T15:13:51;2.25;;;0.65;;
37455;SDS011;23316;50.718;7.328;2022-09-25T15:16:21;2.50;;;0.70;;
37455;SDS011;23316;50.718;7.328;2022-09-25T15:19:12;4.05;;;1.05;;
37455;SDS011;23316;50.718;7.328;2022-09-25T15:21:45;3.67;;;0.90;;
37455;SDS011;23316;50.718;7.328;2022-09-25T15:24:16;2.40;;;0.80;;
37455;SDS011;23316;50.718;7.328;2022-09-25T15:26:49;5.40;;;0.98;;
37455;SDS011;23316;50.718;7.328;2022-09-25T15:29:20;4.70;;;1.08;;
37455;SDS011;23316;50.718;7.328;2022-09-25T15:31:51;2.58;;;0.90;;